Airfield :
LOGIN :

Register | Disclaimer

   EN    FR    IT 

 










Legend :    VFR   Marginal VFR   IFR   Intensive IFR   Very Intensive IFR
Visi :
Ceiling :
>= 8 km
>= 3000ft
5 to 8 km
1000 to 3000 ft
1500m to 5 km
500 to 1000 ft
800 to 1500m
200 to 500 ft
< 800m
< 200 ft
Symbols :   Thunderstorms  Fog  Heavy snow  Heavy precipitations  Wind > 20 kt
SIGMETs :     Misc.  Thunderstorms  Icing  Turbulence  Mountain Waves  Volcanic Ashes







- Airport Elevation : 302 ft
- IATA code : MAH


LEMH - Menorca

CURRENT METAR :
  • 210000Z AUTO 12010KT 090V150 9999 FEW011/// SCT013/// BKN018/// 24/21 Q1016

EXPIRED METARs :
  • 202330Z AUTO 12008KT 090V150 9999 FEW009/// SCT012/// 24/21 Q1016
  • 202300Z AUTO 12009KT 9999 SCT010/// SCT013/// BKN016/// 24/22 Q1016
  • 202230Z 13007KT 9999 SCT012 24/21 Q1017
  • 202200Z 12007KT 9999 SCT012 24/21 Q1017
  • 202130Z 11007KT 080V140 9999 SCT013 24/21 Q1017

TAF TAF LEMH
Valid from the 20 at 21:00 until the 21 at 21:00 UTC


202000Z 2021/2121 13012KT 9999 FEW020 TX29/2112Z TN22/2105Z
PROB40
TEMPO 2102/2115 11015G25KT
PROB40
TEMPO 2105/2109 SHRA FEW015TCU BKN020
No reported NOTAMs for that airfield.



MET'MAP, your aeronautical weather chart ! - Copyright ORBIFLY December 2007 - Disclaimer

ORBIFLY MET'MAP TEAM :

Programming & Development : Alexandra Zaïnal
Concept & Development : Baudouin d'Aumeries
Co-Development & Prog : Marc-Olivier Méhu
Technical & hardware support : Manuel Goepfert

Contact : metmap@orbifly.com




SOURCES & CREDITS :

   NOAA